»·PEaware :: N326MC KAMA-KSLC

N326MC :: KAMA-KSLC

FLIGHT INFORMATION

Flight Status: Arrived
Operator: Privately registered:
United States
More flights under this callsign
Pilot: Anonymous 5456 (5456)
Aircraft: BOEING 737-200
(B732)
More flights by this aircraft type
Origin: KAMA Amarillo Intl
United States
Destination: KSLC Salt Lake City Intl
United States
More flights between these airports :: More routes between these airports
Route: + DHT V81 PUB V244 HBU V484 MTU SPANE7
File this flight plan on PilotEdge
Remarks:
Altitude:
(Current/Filed)
34,000ft
Speed:
(Current/Filed)
480kts
Departed: 20-Jan-18 11:35 AM
Arrived: 20-Jan-18 01:25 PM
Distance/Time
Traveled:
588nm/1:50
Distance/Time
To Go:
Arrived

Flight Plot

Page will automatically refresh every two minutes.

Flight plan parsing failed; only flown route is shown


Map Options




Map Legend


Flown Route
Filed Route
Departure Airport
Arrival Airport
Navaid (VOR, NDB)
Fix

Horizontal Profiles

Position Reports

Time Latitude Longitude Heading Altitude Ground
Speed
20-Jan-18 11:08 35.218118 -101.708295 227 3615ft 0kts
20-Jan-18 11:09 35.218118 -101.708295 227 3615ft 0kts
20-Jan-18 11:10 35.218118 -101.708295 227 3615ft 0kts
20-Jan-18 11:11 35.218118 -101.708295 227 3615ft 0kts
20-Jan-18 11:12 35.218118 -101.708295 227 3615ft 0kts
20-Jan-18 11:13 35.218118 -101.708295 227 3615ft 0kts
20-Jan-18 11:14 35.218118 -101.708295 227 3615ft 0kts
20-Jan-18 11:15 35.218118 -101.708295 227 3615ft 0kts
20-Jan-18 11:16 35.218118 -101.708295 227 3615ft 0kts
20-Jan-18 11:17 35.218118 -101.708295 227 3615ft 0kts
20-Jan-18 11:18 35.218118 -101.708295 227 3615ft 0kts
20-Jan-18 11:19 35.218118 -101.708295 227 3615ft 0kts
20-Jan-18 11:20 35.218118 -101.708295 227 3615ft 0kts
20-Jan-18 11:21 35.218118 -101.708295 227 3615ft 0kts
20-Jan-18 11:22 35.218118 -101.708295 227 3615ft 0kts
20-Jan-18 11:23 35.218118 -101.708295 227 3615ft 0kts
20-Jan-18 11:24 35.218118 -101.708295 227 3615ft 0kts
20-Jan-18 11:25 35.218118 -101.708295 227 3615ft 0kts
20-Jan-18 11:26 35.218118 -101.708295 227 3615ft 0kts
20-Jan-18 11:27 35.218118 -101.708295 227 3615ft 0kts
20-Jan-18 11:28 35.218118 -101.708295 227 3615ft 0kts
20-Jan-18 11:29 35.218118 -101.708295 227 3615ft 0kts
20-Jan-18 11:30 35.218118 -101.708295 227 3615ft 0kts
20-Jan-18 11:31 35.218118 -101.708295 227 3615ft 0kts
20-Jan-18 11:32 35.218118 -101.708295 227 3615ft 0kts
20-Jan-18 11:33 35.218118 -101.708295 227 3615ft 0kts
20-Jan-18 11:34 35.218118 -101.708295 227 3615ft 0kts
20-Jan-18 11:35 35.217987 -101.708512 246 3615ft 8kts
20-Jan-18 11:36 35.220337 -101.707046 353 3615ft 13kts
20-Jan-18 11:37 35.223261 -101.704609 45 3615ft 18kts
20-Jan-18 11:38 35.227560 -101.699193 46 3615ft 25kts
20-Jan-18 11:39 35.229777 -101.699163 316 3615ft 0kts
20-Jan-18 11:40 35.230526 -101.700650 230 3615ft 15kts
20-Jan-18 11:41 35.228668 -101.703021 227 3615ft 49kts
20-Jan-18 11:42 35.201200 -101.735064 223 4312ft 180kts
20-Jan-18 11:43 35.163630 -101.779435 225 6324ft 212kts
20-Jan-18 11:44 35.132160 -101.839445 282 7982ft 227kts
20-Jan-18 11:45 35.183109 -101.885831 324 9539ft 243kts
20-Jan-18 11:46 35.247878 -101.933322 326 10220ft 318kts
20-Jan-18 11:47 35.327982 -101.990834 326 12213ft 342kts
20-Jan-18 11:48 35.410859 -102.050350 325 14320ft 353kts
20-Jan-18 11:49 35.496495 -102.112001 325 16215ft 362kts
20-Jan-18 11:50 35.583961 -102.175131 325 17900ft 371kts
20-Jan-18 11:51 35.673651 -102.240031 325 19410ft 380kts
20-Jan-18 11:52 35.765514 -102.306681 324 20767ft 387kts
20-Jan-18 11:53 35.858770 -102.374525 324 21981ft 394kts
20-Jan-18 11:54 35.953703 -102.443783 324 23076ft 401kts
20-Jan-18 11:55 36.050118 -102.514321 324 24066ft 406kts
20-Jan-18 11:56 36.142198 -102.589521 319 24957ft 408kts
20-Jan-18 11:57 36.233325 -102.670743 318 25776ft 413kts
20-Jan-18 11:58 36.326030 -102.753485 318 26529ft 417kts
20-Jan-18 11:59 36.420141 -102.837726 318 27180ft 422kts
20-Jan-18 12:00 36.515752 -102.923606 318 27805ft 426kts
20-Jan-18 12:01 36.611836 -103.010165 318 28343ft 430kts
20-Jan-18 12:02 36.708275 -103.097332 317 28809ft 435kts
20-Jan-18 12:03 36.806569 -103.186475 316 29234ft 439kts
20-Jan-18 12:04 36.905428 -103.276412 316 29659ft 442kts
20-Jan-18 12:05 37.005134 -103.367370 316 29888ft 449kts
20-Jan-18 12:06 37.103714 -103.457588 315 29885ft 457kts
20-Jan-18 12:07 37.203292 -103.549053 315 29865ft 453kts
20-Jan-18 12:08 37.300505 -103.632475 319 29871ft 454kts
20-Jan-18 12:09 37.403552 -103.714394 318 29862ft 454kts
20-Jan-18 12:10 37.510020 -103.798811 318 29865ft 453kts
20-Jan-18 12:11 37.616047 -103.883135 318 29888ft 452kts
20-Jan-18 12:12 37.721965 -103.967660 318 29866ft 452kts
20-Jan-18 12:13 37.828095 -104.052640 318 29862ft 452kts
20-Jan-18 12:14 37.933443 -104.137290 318 29809ft 453kts
20-Jan-18 12:15 38.039255 -104.222605 318 29811ft 452kts
20-Jan-18 12:16 38.142603 -104.306221 318 29800ft 452kts
20-Jan-18 12:17 38.247608 -104.391868 314 29793ft 446kts
20-Jan-18 12:18 38.296221 -104.518730 273 29802ft 397kts
20-Jan-18 12:19 38.309817 -104.656105 269 29799ft 392kts
20-Jan-18 12:20 38.319255 -104.786521 268 29813ft 393kts
20-Jan-18 12:21 38.328715 -104.924382 268 29815ft 393kts
20-Jan-18 12:22 38.337959 -105.062600 267 29819ft 394kts
20-Jan-18 12:23 38.347004 -105.200917 267 29826ft 399kts
20-Jan-18 12:24 38.356171 -105.343401 267 29824ft 409kts
20-Jan-18 12:25 38.365246 -105.486486 267 29874ft 415kts
20-Jan-18 12:26 38.374158 -105.629723 267 29940ft 419kts
20-Jan-18 12:27 38.382818 -105.771802 267 29947ft 424kts
20-Jan-18 12:28 38.391565 -105.918205 267 29945ft 429kts
20-Jan-18 12:29 38.399724 -106.057937 267 29944ft 432kts
20-Jan-18 12:30 38.408194 -106.206665 267 29941ft 433kts
20-Jan-18 12:31 38.416508 -106.355946 267 29942ft 429kts
20-Jan-18 12:32 38.424428 -106.501550 267 29952ft 426kts
20-Jan-18 12:33 38.432363 -106.650656 266 29956ft 424kts
20-Jan-18 12:34 38.439664 -106.791497 266 29963ft 423kts
20-Jan-18 12:35 38.447283 -106.940937 265 29964ft 422kts
20-Jan-18 12:36 38.471127 -107.088705 282 29960ft 443kts
20-Jan-18 12:37 38.520858 -107.232551 283 29961ft 443kts
20-Jan-18 12:38 38.571166 -107.375022 283 29925ft 442kts
20-Jan-18 12:39 38.621536 -107.518092 283 29861ft 442kts
20-Jan-18 12:40 38.670908 -107.658965 283 29853ft 440kts
20-Jan-18 12:41 38.717917 -107.793727 283 29859ft 440kts
20-Jan-18 12:42 38.766033 -107.932250 283 29847ft 439kts
20-Jan-18 12:43 38.813442 -108.069434 283 29840ft 439kts
20-Jan-18 12:44 38.857729 -108.198219 283 29837ft 439kts
20-Jan-18 12:45 38.907450 -108.335801 284 29837ft 441kts
20-Jan-18 12:46 38.953320 -108.475355 281 29832ft 437kts
20-Jan-18 12:47 39.000015 -108.615700 282 29829ft 437kts
20-Jan-18 12:48 39.044263 -108.747036 281 29841ft 437kts
20-Jan-18 12:49 39.124216 -108.869066 304 29819ft 473kts
20-Jan-18 12:50 39.217138 -108.981854 305 29819ft 472kts
20-Jan-18 12:51 39.310509 -109.094695 305 29819ft 471kts
20-Jan-18 12:52 39.402493 -109.206232 305 29821ft 471kts
20-Jan-18 12:53 39.492563 -109.315863 305 29815ft 473kts
20-Jan-18 12:54 39.584022 -109.427592 305 29812ft 474kts
20-Jan-18 12:55 39.677169 -109.541831 305 29825ft 475kts
20-Jan-18 12:56 39.767870 -109.653499 304 29825ft 476kts
20-Jan-18 12:57 39.808803 -109.704029 304 29835ft 477kts
20-Jan-18 12:58 39.899009 -109.815653 304 28734ft 459kts
20-Jan-18 12:59 39.983886 -109.921170 305 26976ft 443kts
20-Jan-18 13:00 40.067406 -110.025112 305 26829ft 424kts
20-Jan-18 13:01 40.136734 -110.134777 273 26830ft 377kts
20-Jan-18 13:02 40.146449 -110.260509 260 26798ft 347kts
20-Jan-18 13:03 40.146848 -110.381436 258 26782ft 335kts
20-Jan-18 13:04 40.145912 -110.497967 258 26618ft 329kts
20-Jan-18 13:05 40.144583 -110.616573 259 24961ft 341kts
20-Jan-18 13:06 40.143193 -110.735685 259 23523ft 347kts
20-Jan-18 13:07 40.141640 -110.858559 259 22166ft 350kts
20-Jan-18 13:08 40.139902 -110.982262 261 20893ft 351kts
20-Jan-18 13:09 40.138030 -111.107502 263 19684ft 351kts
20-Jan-18 13:10 40.136054 -111.233343 263 18526ft 350kts
20-Jan-18 13:11 40.133912 -111.359353 264 17410ft 350kts
20-Jan-18 13:12 40.131655 -111.483994 265 16349ft 349kts
20-Jan-18 13:13 40.152383 -111.603325 290 15985ft 351kts
20-Jan-18 13:14 40.188551 -111.704997 295 14552ft 357kts
20-Jan-18 13:15 40.229460 -111.816063 300 12947ft 347kts
20-Jan-18 13:16 40.302484 -111.885715 329 11257ft 330kts
20-Jan-18 13:17 40.379048 -111.871271 56 9490ft 294kts
20-Jan-18 13:18 40.359959 -111.789583 157 8990ft 255kts
20-Jan-18 13:19 40.296989 -111.787899 232 8998ft 242kts
20-Jan-18 13:20 40.315009 -111.851597 339 9151ft 224kts
20-Jan-18 13:21 40.373783 -111.878670 340 8981ft 227kts
20-Jan-18 13:22 40.422479 -111.900939 340 8986ft 224kts
20-Jan-18 13:23 40.487802 -111.929575 351 8976ft 198kts
20-Jan-18 13:24 40.530412 -111.934866 354 8855ft 176kts
20-Jan-18 13:25 40.591440 -111.941945 354 7984ft 203kts
20-Jan-18 13:26 40.634113 -111.946837 353 7003ft 164kts
20-Jan-18 13:27 40.673083 -111.951316 353 6200ft 134kts
20-Jan-18 13:28 40.706981 -111.955218 353 5557ft 128kts
20-Jan-18 13:29 40.737409 -111.964755 335 5036ft 124kts
20-Jan-18 13:30 40.767944 -111.972377 351 4373ft 121kts
20-Jan-18 13:31 40.785909 -111.973944 84 4236ft 7kts
20-Jan-18 13:32 40.785530 -111.969384 74 4236ft 13kts
20-Jan-18 13:33 40.786497 -111.964143 75 4236ft 16kts
20-Jan-18 13:34 40.786568 -111.963773 76 4236ft 0kts
20-Jan-18 13:35 40.786660 -111.963234 77 4236ft 13kts
20-Jan-18 13:36 40.784191 -111.960010 180 4236ft 16kts
20-Jan-18 13:37 40.780097 -111.960011 179 4236ft 19kts
20-Jan-18 13:38 40.777529 -111.960246 99 4236ft 6kts
20-Jan-18 13:39 40.777211 -111.959452 182 4236ft 0kts
20-Jan-18 13:40 40.777211 -111.959452 182 4236ft 0kts
20-Jan-18 13:41 40.777211 -111.959452 182 4236ft 0kts
20-Jan-18 13:42 40.777211 -111.959452 182 4236ft 0kts
20-Jan-18 13:43 40.777211 -111.959452 182 4236ft 0kts
20-Jan-18 13:44 40.777211 -111.959452 182 4236ft 0kts

Navigation Log

Ident Type
Flight plan parsing failed, navigation log unavailable